Weather Top, Arizona (BMGR) Weather observations

Data are for 10 minute period ending at time listed.
 Day   Time   Solar   Ave.   Ave.  Ave.  Vector  Max.   Total    
  of    of     Rad.   Air    Rel.  Wind   Wind   Wind  Precip.   
Year   Day            Temp.  Hum.  Speed  Dir.   Gust            
2026   (MST)  Kw/m2    F      %     mph   deg.    mph    in.     
-----------------------------------------------------------------
 248   14:35   0.72   95.3    25    5.7   351    10.5    0.00 
 248   14:40   0.71   97.3    23    5.7    84    11.6    0.00 
 248   14:45   0.79   96.8    24    4.3    76     8.2    0.00 
 248   14:50   0.74   98.1    23    5.1   112     9.9    0.00 
 248   14:55   0.56   96.2    24    4.7   304     8.8    0.00 
 248   15:00   0.46   95.7    24    4.7   324    10.5    0.00 
 248   15:05   0.49   95.4    25    5.1    96     8.2    0.00 
 248   15:10   0.32   95.9    24    5.3    91    10.5    0.00 
 248   15:15   0.52   94.8    25    6.6   327    13.8    0.00 
 248   15:20   0.75   94.6    25    6.2   303    12.7    0.00 
 248   15:25   0.72   95.8    25    5.0    74     8.8    0.00 
 248   15:30   0.68   96.4    24    5.8   325    13.3    0.00 
 248   15:35   0.58   95.7    25    5.7   328    12.1    0.00 
 248   15:40   0.63   95.5    25    6.7   312    12.1    0.00 
 248   15:45   0.57   96.1    24    4.6    20     8.8    0.00 
 248   15:50   0.28   96.7    24    5.6    90    14.9    0.00 
 248   15:55   0.56   95.4    25    4.9   334     9.3    0.00 
 248   16:00   0.54   97.0    24    5.1    92    10.5    0.00 
 248   16:05   0.47   96.5    24    4.7    84     8.2    0.00 
 248   16:10   0.28   96.5    24    5.6   111     9.9    0.00 
 248   16:15   0.24   96.0    24    5.6   102     9.3    0.00 
 248   16:20   0.32   95.2    25    4.4   346     9.3    0.00 
 248   16:25   0.39   95.7    24    4.6    96     9.9    0.00 
 248   16:30   0.30   95.8    24    4.4    66    11.6    0.00 
 248   16:35   0.17   93.9    26    6.1   317    11.0    0.00 
 248   16:40   0.17   93.8    26    4.7   124     9.9    0.00 
 248   16:45   0.19   93.9    26    4.5   324    10.5    0.00 
 248   16:50   0.14   93.8    26    4.4   108    10.5    0.00 
 248   16:55   0.14   93.6    26    4.7   340     9.3    0.00 
 248   17:00   0.20   93.6    26    4.0    99     7.7    0.00 
 248   17:05   0.14   93.6    26    3.8    30     8.8    0.00 
 248   17:10   0.18   93.6    26    4.3    20    11.0    0.00 
 248   17:15   0.26   93.9    26    4.7   349    12.1    0.00 
 248   17:20   0.25   94.2    26    4.1   331     9.3    0.00 
 248   17:25   0.14   94.4    26    3.3     4     8.2    0.00 
 248   17:30   0.10   93.5    27    5.5   317    11.0    0.00 
 248   17:35   0.11   92.3    28    6.3   328    11.6    0.00 
 248   17:40   0.07   92.4    28    5.5   347    11.6    0.00 
 248   17:45   0.05   91.5    28    7.1   335    12.1    0.00 
 248   17:50   0.13   91.5    28    6.7   348    12.1    0.00 
 248   17:55   0.16   91.7    28    9.3   336    17.2    0.00 
 248   18:00   0.13   91.4    29    7.2   350    13.3    0.00 
 248   18:05   0.09   90.8    30    7.3   335    13.8    0.00 
 248   18:10   0.05   89.9    30   10.0   328    15.5    0.00 
 248   18:15   0.03   89.4    31    6.7   331    14.9    0.00 
 248   18:20   0.04   89.0    32    8.6   325    13.3    0.00 
 248   18:25   0.04   88.6    32    8.1   328    15.5    0.00 
 248   18:30   0.03   88.3    33    8.6   332    14.9    0.00 
 248   18:35   0.02   88.1    33    5.8   359    14.4    0.00 
 248   18:40   0.02   87.9    33    7.8   328    13.8    0.00 
 248   18:45   0.01   87.6    33    6.8   330    11.0    0.00 
 248   18:50   0.01   87.3    34    6.4   332    11.6    0.00 
 248   18:55   0.00   87.2    34    6.0   339    12.1    0.00 
 248   19:00   0.00   86.8    34    7.1   328    13.3    0.00 
 248   19:05   0.00   86.8    34    4.6   327     8.8    0.00 
 248   19:10   0.00   86.7    34    4.4   328     9.3    0.00 
 248   19:15   0.00   86.6    34    4.1   333     7.7    0.00 
 248   19:20   0.00   86.5    35    3.8   334     8.8    0.00 
 248   19:25   0.00   86.2    35    4.9   333     9.9    0.00 
 248   19:30   0.00   86.1    35    5.1   332     9.3    0.00 
 248   19:35   0.00   85.9    35    5.9   330    10.5    0.00 
 248   19:40   0.00   85.8    36    5.8   329    10.5    0.00 
 248   19:45   0.00   85.6    36    5.4   327     9.3    0.00 
 248   19:50   0.00   85.6    36    2.9   325     6.5    0.00 
 248   19:55   0.00   85.5    36    4.3   330     9.3    0.00 
 248   20:00   0.00   85.3    36    5.3   326    12.1    0.00 
 248   20:05   0.00   85.3    37    4.8   327     7.7    0.00 
 248   20:10   0.00   85.2    37    4.5   328     7.7    0.00 
 248   20:15   0.00   85.2    37    5.1   337    11.0    0.00 
 248   20:20   0.00   85.1    37    5.4   338     8.8    0.00 
 248   20:25   0.00   84.9    37    4.8   347     8.8    0.00 
 248   20:30   0.00   84.6    38    4.7   349     8.8    0.00 
 248   20:35   0.00   84.6    38    5.0   332     8.2    0.00 
 248   20:40   0.00   84.6    38    4.0   326     6.0    0.00 
 248   20:45   0.00   84.5    38    4.2   323     6.5    0.00 
 248   20:50   0.00   84.5    38    3.1   318     6.5    0.00 
 248   20:55   0.00   84.4    38    2.7   314     8.2    0.00 
 248   21:00   0.00   84.3    38    2.7   323     7.1    0.00 
 248   21:05   0.00   84.3    38    2.8   319     6.5    0.00 
 248   21:10   0.00   84.3    38    2.4   321     5.4    0.00 
 248   21:15   0.00   84.3    38    3.3   319     6.0    0.00 
 248   21:20   0.00   84.2    38    2.3   317     6.5    0.00 
 248   21:25   0.00   84.1    38    2.5   319     6.0    0.00 
 248   21:30   0.00   84.0    38    3.5   329     6.0    0.00 
 248   21:35   0.00   84.0    38    3.3   333     4.9    0.00 
 248   21:40   0.00   83.9    38    2.7   345     4.9    0.00 
 248   21:45   0.00   83.8    38    3.1     2     5.4    0.00 
 248   21:50   0.00   83.9    38    3.4   356     5.4    0.00 
 248   21:55   0.00   83.9    38    3.1   358     6.0    0.00 
 248   22:00   0.00   83.8    38    2.8    11     4.9    0.00 
 248   22:05   0.00   83.7    38    3.2    16     4.9    0.00 
 248   22:10   0.00   83.6    38    3.7    27     5.4    0.00 
 248   22:15   0.00   83.6    38    4.5    42     5.4    0.00 
 248   22:20   0.00   83.6    38    4.8    45     6.0    0.00 
 248   22:25   0.00   83.6    38    4.5    36     5.4    0.00 
 248   22:30   0.00   83.6    38    4.5    32     6.0    0.00 
 248   22:35   0.00   83.6    37    3.9    25     6.0    0.00 
 248   22:40   0.00   83.9    37    2.4   355     4.3    0.00 
 248   22:45   0.00   84.0    37    2.6   334     4.9    0.00 
 248   22:50   0.00   83.6    38    0.4   343     4.3    0.00 
 248   22:55   0.00   83.0    38    1.0    25     3.8    0.00 
 248   23:00   0.00   83.4    37    2.8    17     4.9    0.00 
 248   23:05   0.00   83.9    37    2.2   355     4.3    0.00 
 248   23:10   0.00   84.0    37    2.8   336     4.3    0.00 
 248   23:15   0.00   83.8    37    0.6   345     2.6    0.00 
 248   23:20   0.00   83.8    37    0.2     8     2.1    0.00 
 248   23:25   0.00   83.8    37    0.0    22     1.5    0.00 
 248   23:30   0.00   83.9    37    0.3   343     2.1    0.00 
 248   23:35   0.00   84.1    37    0.3   356     2.1    0.00 
 248   23:40   0.00   83.8    37    0.1    34     1.5    0.00 
 248   23:45   0.00   83.6    37    0.1   325     1.5    0.00 
 248   23:50   0.00   83.9    37    1.2   323     3.2    0.00 
 248   23:55   0.00   84.1    37    1.9   304     3.8    0.00 
 249    0:00   0.00   83.9    37    2.1   305     3.8    0.00 
 249    0:05   0.00   83.9    37    0.4   303     2.6    0.00 
 249    0:10   0.00   84.2    37    1.5   304     4.3    0.00 
 249    0:15   0.00   84.5    36    2.4   304     6.0    0.00 
 249    0:20   0.00   84.5    36    3.0   300     6.0    0.00 
 249    0:25   0.00   84.4    36    2.6   302     5.4    0.00 
 249    0:30   0.00   84.3    36    3.7   298     5.4    0.00 
 249    0:35   0.00   84.3    37    3.4   296     4.9    0.00 
 249    0:40   0.00   84.3    36    3.4   298     4.9    0.00 
 249    0:45   0.00   84.3    36    3.0   293     4.3    0.00 
 249    0:50   0.00   84.3    36    2.1   299     4.9    0.00 
 249    0:55   0.00   84.2    36    2.8   296     4.9    0.00 
 249    1:00   0.00   84.1    37    1.8   303     3.8    0.00 
 249    1:05   0.00   84.0    37    1.7   302     4.3    0.00 
 249    1:10   0.00   84.0    37    3.1   298     5.4    0.00 
 249    1:15   0.00   84.1    36    3.6   298     6.0    0.00 
 249    1:20   0.00   84.1    36    2.3   296     4.9    0.00 
 249    1:25   0.00   84.1    36    1.6   303     3.8    0.00 
 249    1:30   0.00   84.1    36    2.0   295     3.8    0.00 
 249    1:35   0.00   84.1    36    1.6   296     3.8    0.00 
 249    1:40   0.00   84.1    36    1.8   294     4.3    0.00 
 249    1:45   0.00   84.0    36    2.6   298     4.9    0.00 
 249    1:50   0.00   83.8    36    2.9   294     4.3    0.00 
 249    1:55   0.00   83.7    37    0.7   294     3.2    0.00 
 249    2:00   0.00   83.5    37    1.1   290     4.9    0.00 
 249    2:05   0.00   83.6    37    0.6   292     3.2    0.00 
 249    2:10   0.00   83.4    37    0.7   304     2.6    0.00 
 249    2:15   0.00   83.5    37    2.1   296     3.8    0.00 
 249    2:20   0.00   83.7    36    3.2   296     4.9    0.00 
 249    2:25   0.00   83.7    36    3.2   300     5.4    0.00 
 249    2:30   0.00   83.5    37    1.2   300     3.8    0.00 
 249    2:35   0.00   83.4    37    1.7   298     4.3    0.00 
 249    2:40   0.00   83.3    37    1.6   302     3.8    0.00 
 249    2:45   0.00   83.1    37    0.5   323     3.2    0.00 
 249    2:50   0.00   82.9    38    0.5   317     3.2    0.00 
 249    2:55   0.00   82.8    38    0.2   311     2.1    0.00 
 249    3:00   0.00   82.7    38    1.0   296     3.2    0.00 
 249    3:05   0.00   82.8    38    1.9   296     4.3    0.00 
 249    3:10   0.00   82.6    38    2.0   305     4.3    0.00 
 249    3:15   0.00   82.5    39    3.1   299     5.4    0.00 
 249    3:20   0.00   82.4    39    2.2   298     5.4    0.00 
 249    3:25   0.00   82.3    39    2.6   311     4.9    0.00 
 249    3:30   0.00   82.1    39    1.0   337     5.4    0.00 
 249    3:35   0.00   81.8    40    0.7   305     4.9    0.00 
 249    3:40   0.00   81.6    40    1.5   307     4.9    0.00 
 249    3:45   0.00   81.6    40    3.0   305     4.3    0.00 
 249    3:50   0.00   81.7    40    4.0   296     6.0    0.00 
 249    3:55   0.00   81.7    40    4.3   301     6.5    0.00 
 249    4:00   0.00   81.6    41    3.1   302     6.0    0.00 
 249    4:05   0.00   81.5    41    2.8   307     6.5    0.00 
 249    4:10   0.00   81.6    41    3.1   301     7.7    0.00 
 249    4:15   0.00   81.6    41    2.9   298     5.4    0.00 
 249    4:20   0.00   81.6    41    1.5   309     3.2    0.00 
 249    4:25   0.00   81.5    41    1.4   316     3.8    0.00 
 249    4:30   0.00   81.7    41    2.2   323     3.8    0.00 
 249    4:35   0.00   81.7    41    2.8   316     5.4    0.00 
 249    4:40   0.00   81.5    41    2.4   317     4.3    0.00 
 249    4:45   0.00   81.2    41    1.8   319     4.3    0.00 
 249    4:50   0.00   81.1    42    1.7   319     3.8    0.00 
 249    4:55   0.00   81.2    42    2.1   311     3.8    0.00 
 249    5:00   0.00   81.1    42    1.7   314     4.3    0.00 
 249    5:05   0.00   81.0    42    2.2   313     4.9    0.00 
 249    5:10   0.00   81.1    42    1.5   304     4.9    0.00 
 249    5:15   0.00   81.1    42    1.6   307     4.9    0.00 
 249    5:20   0.00   81.0    42    1.5   308     4.3    0.00 
 249    5:25   0.00   81.1    42    2.0   322     4.3    0.00 
 249    5:30   0.00   81.2    42    2.0   320     4.9    0.00 
 249    5:35   0.00   81.3    43    2.4   323     4.9    0.00 
 249    5:40   0.00   81.2    43    2.9   322     4.9    0.00 
 249    5:45   0.00   81.2    43    2.5   322     4.3    0.00 
 249    5:50   0.00   81.0    43    2.3   321     4.3    0.00 
 249    5:55   0.00   80.9    43    2.5   317     6.0    0.00 
 249    6:00   0.00   80.9    44    1.9   319     4.9    0.00 
 249    6:05   0.00   81.0    44    2.5   325     4.9    0.00 
 249    6:10   0.01   81.1    43    2.6   326     5.4    0.00 
 249    6:15   0.01   81.1    43    2.8   324     4.9    0.00 
 249    6:20   0.02   81.2    43    3.1   330     4.9    0.00 
 249    6:25   0.04   81.5    42    3.0   337     4.9    0.00 
 249    6:30   0.05   81.6    42    1.5   345     3.8    0.00 
 249    6:35   0.06   81.8    42    1.4   349     4.3    0.00 
 249    6:40   0.06   82.0    41    2.2   356     4.3    0.00 
 249    6:45   0.07   81.9    42    1.8   347     4.9    0.00 
 249    6:50   0.10   82.1    42    3.0   339     4.9    0.00 
 249    6:55   0.13   82.4    41    0.6   356     2.6    0.00 
 249    7:00   0.14   82.8    41    1.1   358     3.8    0.00 
 249    7:05   0.16   82.8    41    2.2   350     4.3    0.00 
 249    7:10   0.18   82.7    41    3.4   337     5.4    0.00 
 249    7:15   0.18   82.6    41    2.9   333     4.9    0.00 
 249    7:20   0.18   82.6    41    1.4   347     3.8    0.00 
 249    7:25   0.21   83.4    40    0.7   359     3.8    0.00 
 249    7:30   0.23   83.6    40    2.0     6     4.3    0.00 
 249    7:35   0.21   83.6    40    2.2     9     4.3    0.00 
 249    7:40   0.23   83.9    40    1.6   352     4.3    0.00 
 249    7:45   0.25   84.1    40    2.0   343     4.9    0.00 
 249    7:50   0.28   84.1    40    1.5   350     4.3    0.00 
 249    7:55   0.30   84.2    40    1.9   344     4.9    0.00 
 249    8:00   0.32   84.6    39    0.8    14     2.6    0.00 
 249    8:05   0.34   84.8    39    1.7    12     3.8    0.00 
 249    8:10   0.36   84.6    39    2.3    16     3.8    0.00 
 249    8:15   0.34   84.5    39    2.1     7     3.8    0.00 
 249    8:20   0.40   84.8    38    1.2   359     3.8    0.00 
 249    8:25   0.44   85.2    38    1.9   350     3.8    0.00 
 249    8:30   0.42   85.5    37    2.3   347     4.3    0.00 
 249    8:35   0.29   85.2    37    2.3   348     4.9    0.00 
 249    8:40   0.37   84.9    37    3.2   345     5.4    0.00 
 249    8:45   0.48   85.3    37    2.8   356     5.4    0.00 
 249    8:50   0.49   85.8    36    3.1   338     6.5    0.00 
 249    8:55   0.51   86.0    34    3.9   344     7.1    0.00 
 249    9:00   0.49   86.1    34    3.9   358     7.7    0.00 
 249    9:05   0.47   86.1    34    4.0   355     9.3    0.00 
 249    9:10   0.55   86.7    34    2.6   354     7.1    0.00 
 249    9:15   0.54   86.9    33    4.0   346     8.8    0.00 
 249    9:20   0.58   86.8    33    3.8     4     8.2    0.00 
 249    9:25   0.60   87.3    33    3.0   348     7.1    0.00 
 249    9:30   0.61   87.8    32    3.2   336     6.5    0.00 
 249    9:35   0.58   88.1    31    4.2   353     7.1    0.00 
 249    9:40   0.63   87.9    31    3.9   350     7.1    0.00 
 249    9:45   0.65   87.9    31    3.5     3     6.0    0.00 
 249    9:50   0.66   88.4    31    2.1     7     4.3    0.00 
 249    9:55   0.66   89.7    30    3.7     7     8.2    0.00 
 249   10:00   0.67   88.9    30    4.9     8     8.2    0.00 
 249   10:05   0.67   88.7    31    4.7     1     8.2    0.00 
 249   10:10   0.70   88.7    31    4.9   356     9.3    0.00 
 249   10:15   0.69   88.8    31    5.6   356     8.8    0.00 
 249   10:20   0.72   88.8    31    6.1     8    12.7    0.00 
 249   10:25   0.72   89.1    30    5.1     0     9.3    0.00 
 249   10:30   0.74   89.3    30    4.6    15     7.1    0.00 
 249   10:35   0.76   89.5    31    5.6     5    11.0    0.00 
 249   10:40   0.76   89.7    30    4.9     2     8.2    0.00 
 249   10:45   0.77   90.3    30    4.4     2     8.8    0.00 
 249   10:50   0.78   90.6    29    5.1   355     9.9    0.00 
 249   10:55   0.79   91.1    28    3.6   326     8.2    0.00 
 249   11:00   0.80   91.1    28    4.6   338     7.7    0.00 
 249   11:05   0.81   90.3    29    6.1   335    10.5    0.00 
 249   11:10   0.78   90.0    29    3.5   312     7.7    0.00 
 249   11:15   0.81   90.6    29    4.2   342    10.5    0.00 
 249   11:20   0.82   91.1    28    5.2   358    10.5    0.00 
 249   11:25   0.83   91.6    28    6.6   307    12.1    0.00 
 249   11:30   0.83   91.1    28    5.4   319     9.3    0.00 
 249   11:35   0.84   91.6    28    5.0   328    12.1    0.00 
 249   11:40   0.82   91.2    28    4.3   312     9.9    0.00 
 249   11:45   0.81   91.0    28    4.7    11     8.8    0.00 
 249   11:50   0.83   91.3    28    3.7     2     9.9    0.00 
 249   11:55   0.87   92.2    28    4.4   325     9.3    0.00 
 249   12:00   0.83   93.5    27    3.6    20     8.2    0.00 
 249   12:05   0.82   93.6    27    4.8   318    11.0    0.00 
 249   12:10   0.85   92.4    27    5.3   332    10.5    0.00 
 249   12:15   0.85   92.7    27    4.3   348    13.3    0.00 
 249   12:20   0.86   92.9    27    5.4     8    11.0    0.00 
 249   12:25   0.86   94.4    26    4.8    82     7.7    0.00 
 249   12:30   0.86   96.4    25    5.6    45    11.0    0.00 
 249   12:35   0.86   95.8    25    3.4    26     8.8    0.00 
 249   12:40   0.85   94.7    26    5.4   323    10.5    0.00 
 249   12:45   0.85   94.0    26    4.7   330     8.8    0.00 
 249   12:50   0.86   94.4    26    3.2   313     7.1    0.00 
 249   12:55   0.85   94.8    26    4.5   342     9.9    0.00 
 249   13:00   0.85   94.2    26    4.3   343     9.3    0.00 
 249   13:05   0.85   93.5    26    4.5   288     9.3    0.00 
 249   13:10   0.83   93.7    26    3.2   310     7.7    0.00 
 249   13:15   0.83   95.7    25    4.1   264     8.2    0.00 
 249   13:20   0.84   96.9    24    4.5   346     9.9    0.00 
 249   13:25   0.82   95.6    25    4.7   352     9.9    0.00 
 249   13:30   0.83   96.5    24    3.9   298    11.6    0.00 
 249   13:35   0.82   94.6    25    4.9   266     9.3    0.00 
 249   13:40   0.81   95.2    25    5.4   342    11.0    0.00 
 249   13:45   0.81   95.1    25    4.8   338     8.2    0.00 
 249   13:50   0.79   95.7    25    5.6     9    13.8    0.00 
 249   13:55   0.76   97.6    24    4.6    94     8.2    0.00 
 249   14:00   0.80   97.7    23    4.0    59     7.7    0.00 
 249   14:05   0.77   97.3    24    4.3    81     8.8    0.00 
 249   14:10   0.75   97.4    23    5.7    88    12.7    0.00 
 249   14:15   0.78   97.7    23    5.6    74     8.8    0.00 
 249   14:20   0.76   97.0    24    5.7    75    14.4    0.00 
 249   14:25   0.75   97.3    23    6.0    62     9.9    0.00 
 249   14:30   0.74   97.8    23    6.9   114    13.8    0.00 

Return to Weather Top graphs page.


Western Regional Climate Center,wrcc@dri.edu